Time;durP1;ratioP1;P1;durP2;ratioP2;P2;SDS_P1;SDS_P2;PMS_P1;PMS_P2;Temp;Humidity;BMP_temperature;BMP_pressure;BME280_temperature;BME280_humidity;BME280_pressure;Samples;Min_cycle;Max_cycle;Signal;HPM_P1;HPM_P2
2023/04/19 00:00:37;;;;;;;2.55;2.25;;;;;;;22.20;44.04;100278.72;20616040;28;20073;-76
2023/04/19 00:10:38;;;;;;;2.47;2.10;;;;;;;22.22;44.12;100267.09;20605674;28;20092;-77
2023/04/19 00:20:39;;;;;;;2.33;2.03;;;;;;;22.23;44.44;100263.50;20612801;28;20053;-76
2023/04/19 00:30:39;;;;;;;2.25;2.00;;;;;;;22.19;44.56;100250.69;20632041;28;20122;-76
2023/04/19 00:40:41;;;;;;;3.17;2.00;;;;;;;22.20;44.40;100250.56;20606472;28;20078;-76
2023/04/19 00:50:43;;;;;;;5.05;2.20;;;;;;;22.17;44.57;100239.44;20635414;28;20967;-76
2023/04/19 01:00:43;;;;;;;2.07;1.73;;;;;;;22.18;44.79;100233.19;20599317;28;20053;-76
2023/04/19 01:10:44;;;;;;;2.20;2.03;;;;;;;22.17;44.81;100231.53;20605090;28;20117;-77
2023/04/19 01:20:44;;;;;;;2.33;1.98;;;;;;;22.14;44.87;100223.88;20598774;28;20097;-77
2023/04/19 01:30:45;;;;;;;2.63;2.10;;;;;;;22.13;45.01;100214.28;20599398;28;20035;-76
2023/04/19 01:40:45;;;;;;;2.05;1.70;;;;;;;22.14;44.92;100201.00;20605482;28;20054;-75
2023/04/19 01:50:46;;;;;;;2.03;1.80;;;;;;;22.11;45.01;100189.88;20613264;28;20077;-77
2023/04/19 02:00:47;;;;;;;2.03;1.83;;;;;;;22.12;44.75;100195.00;20610277;28;20093;-77
2023/04/19 02:10:48;;;;;;;1.85;1.75;;;;;;;22.10;45.01;100186.38;20637356;28;20359;-76
2023/04/19 02:20:49;;;;;;;2.10;1.63;;;;;;;22.10;45.08;100183.75;20601621;28;20089;-75
2023/04/19 02:30:49;;;;;;;2.67;1.60;;;;;;;22.11;45.06;100192.50;20624050;28;20047;-75
2023/04/19 02:40:51;;;;;;;2.00;1.60;;;;;;;22.09;45.15;100165.41;20605524;28;20484;-76
2023/04/19 02:50:51;;;;;;;1.88;1.70;;;;;;;22.08;45.47;100151.38;20598330;28;20105;-75
2023/04/19 03:00:52;;;;;;;2.13;1.80;;;;;;;22.04;45.52;100145.53;20599286;28;20398;-77
2023/04/19 03:10:57;;;;;;;3.42;1.90;;;;;;;22.02;45.47;100138.72;20635539;28;20035;-76
2023/04/19 03:20:57;;;;;;;2.42;1.83;;;;;;;22.00;45.25;100130.13;20599373;28;20406;-75
2023/04/19 03:31:04;;;;;;;1.90;1.70;;;;;;;22.01;45.52;100121.25;20592251;28;20065;-77
2023/04/19 03:41:04;;;;;;;1.90;1.70;;;;;;;21.99;45.71;100121.38;20594921;28;20047;-77
2023/04/19 03:51:05;;;;;;;2.85;1.70;;;;;;;22.09;45.51;100117.94;20580126;28;20042;-70
2023/04/19 04:01:07;;;;;;;2.38;1.85;;;;;;;22.10;45.92;100119.63;20592607;28;20042;-71
2023/04/19 04:11:07;;;;;;;4.23;1.83;;;;;;;22.02;46.06;100117.63;20578641;28;20035;-72
2023/04/19 04:21:08;;;;;;;3.85;1.90;;;;;;;22.07;46.30;100111.00;20592878;28;20097;-76
2023/04/19 04:31:08;;;;;;;12.80;3.00;;;;;;;22.14;47.78;100113.97;20595879;28;20042;-74
2023/04/19 04:41:10;;;;;;;10.38;3.13;;;;;;;22.17;48.42;100105.78;20599910;28;20051;-74
2023/04/19 04:51:11;;;;;;;14.13;3.70;;;;;;;22.20;48.11;100108.16;20600442;28;20054;-75
2023/04/19 05:01:12;;;;;;;13.80;3.78;;;;;;;22.08;42.65;100101.28;20603275;28;20825;-75
2023/04/19 05:11:13;;;;;;;8.27;3.88;;;;;;;21.82;40.36;100098.25;20598874;28;20042;-71
2023/04/19 05:21:13;;;;;;;7.90;3.78;;;;;;;21.87;41.20;100112.72;20613542;28;20070;-74
2023/04/19 05:31:28;;;;;;;7.90;3.20;;;;;;;21.89;42.03;100105.50;20607043;28;20035;-76
2023/04/19 05:41:28;;;;;;;8.90;3.13;;;;;;;21.93;44.35;100100.81;20605616;28;20538;-76
2023/04/19 05:51:30;;;;;;;6.63;3.00;;;;;;;21.97;43.56;100102.22;20590554;28;20045;-77
2023/04/19 06:01:31;;;;;;;7.70;3.03;;;;;;;21.98;44.57;100098.59;20579056;28;20050;-75
2023/04/19 06:11:31;;;;;;;7.47;2.90;;;;;;;22.00;44.95;100101.94;20580096;28;20039;-74
2023/04/19 06:21:33;;;;;;;4.03;2.33;;;;;;;21.97;44.67;100086.41;20583009;28;20289;-74
2023/04/19 06:31:33;;;;;;;6.60;3.00;;;;;;;21.97;45.11;100091.69;20579677;28;20062;-74
2023/04/19 06:41:34;;;;;;;6.55;2.53;;;;;;;21.99;44.95;100078.34;20586286;28;20042;-75
2023/04/19 06:51:34;;;;;;;4.70;2.70;;;;;;;22.01;45.49;100077.25;20584266;28;20524;-75
2023/04/19 07:01:34;;;;;;;4.30;2.60;;;;;;;22.03;45.29;100077.97;20584459;28;20050;-76
2023/04/19 07:11:35;;;;;;;6.18;2.65;;;;;;;22.04;45.29;100063.78;20582689;28;20122;-74
2023/04/19 07:21:37;;;;;;;4.80;2.20;;;;;;;22.08;45.17;100051.19;20580302;28;20058;-75
2023/04/19 07:31:37;;;;;;;5.70;2.60;;;;;;;22.13;45.21;100053.44;20642881;28;20038;-76
2023/04/19 07:41:38;;;;;;;3.00;2.35;;;;;;;22.18;45.40;100049.44;20614130;28;20473;-75
2023/04/19 07:51:39;;;;;;;3.55;2.42;;;;;;;22.19;46.03;100045.84;20616934;28;20069;-75
2023/04/19 08:01:41;;;;;;;5.05;2.35;;;;;;;22.23;45.82;100044.59;20631381;28;20050;-76
2023/04/19 08:11:42;;;;;;;6.07;2.15;;;;;;;22.26;45.93;100046.13;20639805;28;20046;-76
2023/04/19 08:21:42;;;;;;;4.63;2.50;;;;;;;22.27;45.83;100042.50;20617456;28;20050;-75
2023/04/19 08:31:43;;;;;;;6.40;3.13;;;;;;;22.31;46.21;100038.63;20616600;28;20104;-76
2023/04/19 08:41:44;;;;;;;3.90;3.00;;;;;;;22.35;46.29;100018.94;20606287;28;20050;-76
2023/04/19 08:51:49;;;;;;;3.75;2.80;;;;;;;22.38;45.97;100017.88;20604674;28;20133;-76
2023/04/19 09:01:49;;;;;;;3.67;3.13;;;;;;;22.41;46.39;100007.06;20603645;28;20571;-76
2023/04/19 09:11:50;;;;;;;3.97;3.13;;;;;;;22.43;46.29;100005.09;20617841;28;20043;-75
2023/04/19 09:21:52;;;;;;;2.92;2.58;;;;;;;22.10;37.08;100003.63;20620364;28;20051;-75
2023/04/19 09:31:57;;;;;;;3.45;2.55;;;;;;;22.03;36.41;100004.16;20615217;28;20159;-77
2023/04/19 09:41:59;;;;;;;3.75;2.53;;;;;;;22.15;38.21;99993.50;20578036;28;20750;-76
2023/04/19 09:52:02;;;;;;;3.93;2.70;;;;;;;22.23;40.25;99998.94;20599804;28;20101;-76
2023/04/19 10:02:05;;;;;;;3.10;2.30;;;;;;;22.28;41.31;99982.69;20606148;28;20145;-76
2023/04/19 10:12:06;;;;;;;4.20;2.55;;;;;;;22.33;42.34;99976.03;20597675;28;20604;-75
2023/04/19 10:22:07;;;;;;;3.92;2.38;;;;;;;22.42;43.52;99969.13;20604147;28;20047;-75
2023/04/19 10:32:12;;;;;;;3.38;2.30;;;;;;;22.45;43.85;99966.22;20609170;28;20026;-74
2023/04/19 10:42:19;;;;;;;2.60;2.40;;;;;;;22.45;44.73;99965.38;20612240;28;20137;-74
2023/04/19 10:52:28;;;;;;;3.05;2.53;;;;;;;22.48;44.70;99965.94;20635355;28;20154;-75
2023/04/19 11:02:31;;;;;;;3.38;2.60;;;;;;;22.58;44.87;99968.59;20611624;28;20118;-75
2023/04/19 11:12:32;;;;;;;4.32;3.45;;;;;;;22.36;37.50;99954.66;20614867;28;20046;-74
2023/04/19 11:22:36;;;;;;;5.97;4.00;;;;;;;22.32;35.07;99944.53;20617110;28;20055;-76
2023/04/19 11:32:37;;;;;;;5.57;4.30;;;;;;;22.18;32.03;99953.66;20613516;28;20043;-73
2023/04/19 11:42:37;;;;;;;5.07;3.90;;;;;;;22.18;32.09;99938.69;20650558;28;20043;-75
2023/04/19 11:52:39;;;;;;;5.93;4.28;;;;;;;22.25;31.79;99927.56;20622373;28;20073;-74
2023/04/19 12:02:43;;;;;;;6.60;4.70;;;;;;;22.36;33.05;99941.47;20621022;28;20474;-75
2023/04/19 12:12:47;;;;;;;5.18;4.35;;;;;;;22.44;32.75;99943.44;20615515;28;20132;-74
2023/04/19 12:22:47;;;;;;;5.75;4.90;;;;;;;22.43;33.05;99936.50;20641242;28;20054;-74
2023/04/19 12:32:54;;;;;;;10.52;5.50;;;;;;;22.49;33.36;99924.56;20619675;28;20042;-74
2023/04/19 12:42:54;;;;;;;9.02;5.53;;;;;;;22.44;34.25;99924.97;20629034;28;20149;-76
2023/04/19 12:52:55;;;;;;;10.23;5.72;;;;;;;22.43;34.36;99923.31;20602164;28;20047;-72
2023/04/19 13:02:55;;;;;;;10.38;5.32;;;;;;;22.39;34.14;99929.84;20632370;28;20061;-71
2023/04/19 13:12:59;;;;;;;6.95;5.05;;;;;;;22.21;33.17;99925.19;20609750;28;20045;-72
2023/04/19 13:22:59;;;;;;;13.60;4.45;;;;;;;22.30;35.69;99920.94;20581297;28;20073;-76
2023/04/19 13:33:02;;;;;;;9.80;4.28;;;;;;;22.46;36.68;99922.19;20602017;28;20051;-75
2023/04/19 13:43:03;;;;;;;;;;;;;;;22.51;37.56;99914.72;20591782;28;20078;-75
2023/04/19 13:53:04;;;;;;;10.73;5.10;;;;;;;22.59;38.65;99912.19;20591113;28;19918;-74
2023/04/19 14:03:06;;;;;;;11.15;5.30;;;;;;;22.71;39.48;99902.34;20586999;28;20055;-75
2023/04/19 14:13:06;;;;;;;10.07;4.90;;;;;;;22.80;39.69;99906.78;20577595;28;20054;-74
2023/04/19 14:23:07;;;;;;;8.38;5.05;;;;;;;22.82;40.39;99907.44;20584923;28;20070;-75
2023/04/19 14:33:07;;;;;;;7.28;4.78;;;;;;;22.93;40.75;99903.00;20583550;28;20101;-74
2023/04/19 14:43:13;;;;;;;8.60;4.63;;;;;;;23.28;40.15;99901.56;20579261;28;20049;-74
2023/04/19 14:53:15;;;;;;;7.90;4.47;;;;;;;23.56;39.76;99914.78;20669207;28;20272;-74
2023/04/19 15:03:16;;;;;;;6.75;4.57;;;;;;;23.88;39.75;99918.81;20654137;28;20041;-73
2023/04/19 15:13:16;;;;;;;7.88;4.28;;;;;;;24.12;39.44;99923.53;20668983;28;20042;-74
2023/04/19 15:23:22;;;;;;;6.22;4.05;;;;;;;24.27;39.29;99921.22;20704011;28;20153;-73
2023/04/19 15:33:22;;;;;;;8.70;3.88;;;;;;;24.25;39.42;99925.84;20672741;28;20584;-72
2023/04/19 15:43:24;;;;;;;6.32;4.60;;;;;;;24.20;39.78;99952.72;20668383;28;20057;-73
2023/04/19 15:53:24;;;;;;;17.03;4.57;;;;;;;24.14;40.35;99962.09;20673059;28;20046;-76
2023/04/19 16:03:25;;;;;;;7.57;4.47;;;;;;;24.20;41.07;99970.44;20687538;28;20374;-75
2023/04/19 16:13:25;;;;;;;4.03;3.00;;;;;;;23.87;34.52;99962.91;20663857;28;20049;-77
2023/04/19 16:23:26;;;;;;;8.07;2.80;;;;;;;23.79;34.58;99974.22;20663717;28;20077;-78
2023/04/19 16:33:27;;;;;;;4.10;2.42;;;;;;;23.68;35.21;99974.44;20703087;28;20111;-78
2023/04/19 16:43:27;;;;;;;2.77;2.37;;;;;;;23.51;35.80;99978.66;20705228;28;20137;-76
2023/04/19 16:53:30;;;;;;;4.85;2.60;;;;;;;23.38;36.41;99980.78;20715552;28;20072;-77
2023/04/19 17:03:31;;;;;;;3.05;2.28;;;;;;;23.24;37.29;99995.25;20718986;28;20047;-78
2023/04/19 17:13:31;;;;;;;3.08;2.50;;;;;;;23.13;36.98;99998.84;20697431;28;20094;-78
2023/04/19 17:23:38;;;;;;;15.27;3.33;;;;;;;23.00;37.53;100009.72;20701599;28;20073;-77
2023/04/19 17:33:38;;;;;;;112.00;32.00;;;;;;;23.07;40.33;100024.03;20700724;28;20307;-79
2023/04/19 17:43:39;;;;;;;108.55;33.30;;;;;;;23.01;41.56;100032.53;20733534;28;20038;-80
2023/04/19 17:53:41;;;;;;;78.60;24.83;;;;;;;22.95;41.94;100055.03;20702081;28;20108;-80
2023/04/19 18:03:42;;;;;;;;;;;;;;;22.97;43.38;100061.00;20705634;28;20088;-79
2023/04/19 18:13:43;;;;;;;42.10;18.42;;;;;;;23.01;44.57;100072.13;20707136;28;19957;-79
2023/04/19 18:23:46;;;;;;;43.97;19.42;;;;;;;23.05;48.32;100089.34;20695474;28;20046;-79
2023/04/19 18:33:48;;;;;;;42.17;19.20;;;;;;;23.11;50.52;100096.72;20705707;28;20604;-79
2023/04/19 18:43:59;;;;;;;36.20;17.27;;;;;;;23.11;49.65;100106.47;20708175;28;20065;-79
2023/04/19 18:54:00;;;;;;;36.67;15.68;;;;;;;23.10;49.33;100113.53;20692960;28;20331;-79
2023/04/19 19:04:02;;;;;;;29.95;14.23;;;;;;;23.09;49.31;100118.97;20704140;28;20069;-82
2023/04/19 19:14:02;;;;;;;;;;;;;;;23.06;48.81;100130.63;20703040;28;20509;-86
2023/04/19 19:38:17;;;;;;;30.90;9.95;;;;;;;22.94;47.49;100140.47;41617032;27;20457;-78
2023/04/19 19:58:17;;;;;;;21.13;8.65;;;;;;;22.88;47.98;100146.31;41581511;28;20053;-82
2023/04/19 20:18:18;;;;;;;16.35;7.63;;;;;;;22.86;49.17;100149.09;41586933;28;20046;-81
2023/04/19 20:38:22;;;;;;;10.68;6.40;;;;;;;22.81;49.88;100163.66;41517143;28;20049;-77
2023/04/19 20:58:22;;;;;;;14.23;7.30;;;;;;;22.84;49.90;100163.41;41494622;28;20038;-80
2023/04/19 21:18:24;;;;;;;11.90;5.53;;;;;;;22.83;49.93;100174.94;41455781;28;20041;-80
2023/04/19 21:38:24;;;;;;;9.18;5.00;;;;;;;22.80;49.96;100176.03;41587163;28;20065;-81
2023/04/19 21:58:25;;;;;;;9.90;5.10;;;;;;;22.79;49.23;100184.06;41568757;28;20046;-81
2023/04/19 22:18:25;;;;;;;7.55;4.28;;;;;;;22.74;49.44;100215.31;41568924;28;20033;-80
2023/04/19 22:38:26;;;;;;;6.57;3.88;;;;;;;22.74;49.48;100207.41;41455249;28;20042;-80
2023/04/19 22:58:26;;;;;;;6.32;3.83;;;;;;;22.69;49.63;100203.38;41462297;28;20053;-79
2023/04/19 23:18:28;;;;;;;5.40;3.55;;;;;;;22.66;49.37;100216.81;41487153;28;20712;-81
2023/04/19 23:38:29;;;;;;;5.45;3.47;;;;;;;22.65;49.44;100215.13;41613852;28;20048;-73
2023/04/19 23:58:29;;;;;;;4.93;3.35;;;;;;;22.62;49.03;100218.06;41479440;28;20056;-73
